ESOW/VST METAR and TAF weather

Enter ICAO airport designator
Station Type Date Time Source
ESOW METAR 2019/06/26 22:20 UTC NOAA

ESOW 262220Z AUTO 34005KT 9999 OVC098/// 15/14 Q1014


Station Type Date Time Source
ESOW Decoded METAR 2019/06/26 22:20 UTC NOAA

Vasteras / Hasslo, Sweden (ESOW) 59-35N 016-38E 31M
Jun 26, 2019 - 06:20 PM EDT / 2019.06.26 2220 UTC
Wind: from the NNW (340 degrees) at 6 MPH (5 KT):0
Visibility: greater than 7 mile(s):0
Sky conditions: overcast
Temperature: 59 F (15 C)
Dew Point: 57 F (14 C)
Relative Humidity: 93%
Pressure (altimeter): 29.94 in. Hg (1014 hPa)
ob: ESOW 262220Z AUTO 34005KT 9999 OVC098/// 15/14 Q1014
cycle: 22

Station Type Date Time Source
ESOW TAF 2018/11/18 12:33 UTC NOAA

TAF ESOW 181130Z 1812/1914 02015KT 9999 BKN020
TEMPO 1812/1814 02015G25KT

Example: see airport list